Time;durP1;ratioP1;P1;durP2;ratioP2;P2;SDS_P1;SDS_P2;PMS_P1;PMS_P2;Temp;Humidity;BMP_temperature;BMP_pressure;BME280_temperature;BME280_humidity;BME280_pressure;Samples;Min_cycle;Max_cycle;Signal;HPM_P1;HPM_P2
2023/12/15 00:01:46;;;;;;;2.80;2.00;;;3.80;82.00;;;;;;5073102;28;20040;-69
2023/12/15 00:04:12;;;;;;;11.00;4.82;;;3.80;81.90;;;;;;5073607;28;20041;-72
2023/12/15 00:06:38;;;;;;;4.30;2.95;;;3.80;81.60;;;;;;5073399;28;20090;-74
2023/12/15 00:09:05;;;;;;;3.95;3.00;;;3.70;81.60;;;;;;5073773;28;20048;-69
2023/12/15 00:11:31;;;;;;;7.53;3.00;;;3.70;81.50;;;;;;5071549;28;20036;-73
2023/12/15 00:13:57;;;;;;;2.22;1.55;;;3.70;81.40;;;;;;5073683;28;20042;-72
2023/12/15 00:16:23;;;;;;;3.30;1.25;;;3.70;81.60;;;;;;5073142;28;20033;-73
2023/12/15 00:18:50;;;;;;;3.45;1.98;;;3.70;81.50;;;;;;5072063;28;20052;-72
2023/12/15 00:21:16;;;;;;;2.97;2.17;;;3.70;81.60;;;;;;5054727;28;20037;-71
2023/12/15 00:23:42;;;;;;;4.90;2.38;;;3.60;81.60;;;;;;5071987;28;20041;-71
2023/12/15 00:26:08;;;;;;;7.75;3.58;;;3.70;81.80;;;;;;5054987;28;20124;-71
2023/12/15 00:28:34;;;;;;;4.88;2.67;;;3.60;81.70;;;;;;5073475;28;20282;-70
2023/12/15 00:31:00;;;;;;;5.88;3.42;;;3.70;81.90;;;;;;5054510;28;20036;-70
2023/12/15 00:33:26;;;;;;;7.18;2.60;;;3.70;81.80;;;;;;5073053;28;20465;-72
2023/12/15 00:35:52;;;;;;;5.47;3.03;;;3.70;82.50;;;;;;5071735;28;20078;-73
2023/12/15 00:38:18;;;;;;;8.65;4.32;;;3.70;81.50;;;;;;5055089;28;20489;-74
2023/12/15 00:40:44;;;;;;;4.38;2.63;;;3.70;81.50;;;;;;5072429;28;20036;-72
2023/12/15 00:43:10;;;;;;;5.93;3.60;;;3.70;81.70;;;;;;5054865;28;20036;-71
2023/12/15 00:45:36;;;;;;;5.40;3.40;;;3.60;81.80;;;;;;5071383;28;20139;-73
2023/12/15 00:48:03;;;;;;;8.20;4.53;;;3.60;82.20;;;;;;5072820;28;20397;-72
2023/12/15 00:50:29;;;;;;;8.80;4.15;;;3.50;81.80;;;;;;5071958;28;20063;-71
2023/12/15 00:52:57;;;;;;;7.28;4.18;;;3.50;82.70;;;;;;5054607;28;20021;-73
2023/12/15 00:55:23;;;;;;;5.72;2.75;;;3.50;82.50;;;;;;5054225;28;20059;-72
2023/12/15 00:57:49;;;;;;;12.38;4.85;;;3.40;82.20;;;;;;5054843;28;20032;-74
2023/12/15 01:00:15;;;;;;;7.45;3.60;;;3.40;82.40;;;;;;5070584;28;20035;-72
2023/12/15 01:02:41;;;;;;;13.23;3.38;;;3.30;81.60;;;;;;5072759;28;20119;-72
2023/12/15 01:05:08;;;;;;;5.97;3.42;;;3.30;82.10;;;;;;5071065;28;20066;-73
2023/12/15 01:07:33;;;;;;;;;;;3.30;82.20;;;;;;5072018;28;20086;-72
2023/12/15 01:10:00;;;;;;;8.75;5.07;;;3.30;82.20;;;;;;5072747;28;20354;-73
2023/12/15 01:12:26;;;;;;;;;;;3.30;81.80;;;;;;5072738;28;20060;-71
2023/12/15 01:14:52;;;;;;;17.08;6.55;;;3.30;81.70;;;;;;5072561;28;19923;-72
2023/12/15 01:17:18;;;;;;;8.43;4.78;;;3.30;81.80;;;;;;5072229;28;20036;-72
2023/12/15 01:19:44;;;;;;;8.27;5.40;;;3.40;81.80;;;;;;5072271;28;20041;-72
2023/12/15 01:22:10;;;;;;;4.85;4.35;;;3.40;81.70;;;;;;5071791;28;20032;-73
2023/12/15 01:24:36;;;;;;;4.07;2.08;;;3.40;81.80;;;;;;5072481;28;20055;-73
2023/12/15 01:27:02;;;;;;;4.30;3.05;;;3.40;81.90;;;;;;5070906;28;20033;-74
2023/12/15 01:29:28;;;;;;;6.28;2.90;;;3.40;82.10;;;;;;5072491;28;20103;-73
2023/12/15 01:31:54;;;;;;;3.95;2.33;;;3.40;82.40;;;;;;5071678;28;20044;-74
2023/12/15 01:34:20;;;;;;;11.93;4.93;;;3.40;82.70;;;;;;5070849;28;20508;-73
2023/12/15 01:36:46;;;;;;;5.47;3.65;;;3.40;82.60;;;;;;5072229;28;20051;-72
2023/12/15 01:39:12;;;;;;;8.75;4.22;;;3.40;82.40;;;;;;5071075;28;20040;-71
2023/12/15 01:41:38;;;;;;;3.75;2.45;;;3.40;82.40;;;;;;5070385;28;20036;-74
2023/12/15 01:44:04;;;;;;;5.50;3.03;;;3.40;82.50;;;;;;5070620;28;20529;-72
2023/12/15 01:46:30;;;;;;;4.20;2.95;;;3.40;82.70;;;;;;5070815;28;20044;-72
2023/12/15 01:48:57;;;;;;;6.07;3.75;;;3.30;82.80;;;;;;5071901;28;20401;-72
2023/12/15 01:51:24;;;;;;;9.73;3.10;;;3.40;82.70;;;;;;5070074;28;20060;-73
2023/12/15 01:53:50;;;;;;;6.30;3.53;;;3.40;82.80;;;;;;5070594;28;20112;-71
2023/12/15 01:56:16;;;;;;;4.20;2.55;;;3.40;83.10;;;;;;5071870;28;20086;-70
2023/12/15 01:58:42;;;;;;;3.22;1.65;;;3.40;83.30;;;;;;5072232;28;20573;-71
2023/12/15 02:01:08;;;;;;;2.35;1.45;;;3.40;83.40;;;;;;5071410;28;20036;-72
2023/12/15 02:03:35;;;;;;;;;;;3.40;83.50;;;;;;5071277;28;20052;-70
2023/12/15 02:06:01;;;;;;;7.22;2.58;;;3.40;83.30;;;;;;5073917;28;19916;-71
2023/12/15 02:08:27;;;;;;;7.38;2.80;;;3.30;83.40;;;;;;5074592;28;20058;-74
2023/12/15 02:10:53;;;;;;;4.45;2.78;;;3.30;83.80;;;;;;5075215;28;20056;-71
2023/12/15 02:13:19;;;;;;;11.52;5.15;;;3.20;83.80;;;;;;5074494;28;20127;-71
2023/12/15 02:15:45;;;;;;;4.43;2.50;;;3.20;83.80;;;;;;5074201;28;20631;-74
2023/12/15 02:18:12;;;;;;;5.13;3.35;;;3.20;83.50;;;;;;5075547;28;20045;-72
2023/12/15 02:20:38;;;;;;;7.78;4.13;;;3.20;83.50;;;;;;5075276;28;20470;-72
2023/12/15 02:23:04;;;;;;;7.75;3.67;;;3.20;83.30;;;;;;5074353;28;20044;-73
2023/12/15 02:25:30;;;;;;;4.32;2.60;;;3.30;83.20;;;;;;5075277;28;20040;-73
2023/12/15 02:27:56;;;;;;;6.88;4.65;;;3.30;82.90;;;;;;5074287;28;20037;-72
2023/12/15 02:30:22;;;;;;;;;;;3.20;82.70;;;;;;5073997;28;20450;-72
2023/12/15 02:32:48;;;;;;;5.10;2.58;;;3.20;82.50;;;;;;5075404;28;19916;-73
2023/12/15 02:35:16;;;;;;;4.50;2.00;;;3.10;82.50;;;;;;5073722;28;20036;-73
2023/12/15 02:37:43;;;;;;;2.15;1.23;;;3.10;82.50;;;;;;5074038;28;20417;-73
2023/12/15 02:40:10;;;;;;;;;;;3.00;82.20;;;;;;5075237;28;20040;-73
2023/12/15 02:42:36;;;;;;;12.85;6.07;;;3.00;82.20;;;;;;5073965;28;20285;-72
2023/12/15 02:45:02;;;;;;;7.25;4.05;;;2.90;81.90;;;;;;5073852;28;20481;-73
2023/12/15 02:47:28;;;;;;;5.35;3.28;;;2.90;82.10;;;;;;5075138;28;20032;-72
2023/12/15 02:49:55;;;;;;;8.82;5.13;;;2.90;82.40;;;;;;5074035;28;20036;-71
2023/12/15 02:52:21;;;;;;;10.73;6.25;;;3.00;82.40;;;;;;5074444;28;20048;-74
2023/12/15 02:54:47;;;;;;;;;;;3.10;82.20;;;;;;5074147;28;20389;-72
2023/12/15 02:57:13;;;;;;;5.35;3.75;;;3.10;81.30;;;;;;5073767;28;19916;-74
2023/12/15 02:59:39;;;;;;;10.32;5.32;;;3.10;81.70;;;;;;5075303;28;20090;-73
2023/12/15 03:02:05;;;;;;;13.88;5.22;;;3.10;82.00;;;;;;5074355;28;20054;-71
2023/12/15 03:04:31;;;;;;;5.40;2.70;;;3.20;82.00;;;;;;5073157;28;20512;-73
2023/12/15 03:06:58;;;;;;;7.45;3.97;;;3.20;82.10;;;;;;5074848;28;20443;-74
2023/12/15 03:09:24;;;;;;;5.47;2.55;;;3.20;81.90;;;;;;5075055;28;20032;-73
2023/12/15 03:11:51;;;;;;;6.15;2.58;;;3.30;82.10;;;;;;5072794;28;20090;-72
2023/12/15 03:14:17;;;;;;;6.68;3.33;;;3.30;82.10;;;;;;5056519;28;20040;-71
2023/12/15 03:16:43;;;;;;;7.10;2.83;;;3.40;82.20;;;;;;5073284;28;20070;-73
2023/12/15 03:19:09;;;;;;;;;;;3.30;82.20;;;;;;5075463;28;20471;-72
2023/12/15 03:21:35;;;;;;;6.25;3.60;;;3.40;82.10;;;;;;5072861;28;19916;-73
2023/12/15 03:24:01;;;;;;;5.78;3.95;;;3.40;82.00;;;;;;5074661;28;20391;-73
2023/12/15 03:26:27;;;;;;;6.95;4.05;;;3.40;82.10;;;;;;5074479;28;20033;-74
2023/12/15 03:28:53;;;;;;;5.25;3.50;;;3.40;82.20;;;;;;5074550;28;20036;-72
2023/12/15 03:31:19;;;;;;;;;;;3.50;82.20;;;;;;5072894;28;20110;-72
2023/12/15 03:33:45;;;;;;;6.65;4.07;;;3.50;82.10;;;;;;5074472;28;20353;-73
2023/12/15 03:36:11;;;;;;;6.15;3.05;;;3.50;81.90;;;;;;5074411;28;20474;-72
2023/12/15 03:38:37;;;;;;;8.88;5.38;;;3.50;81.90;;;;;;5072886;28;20089;-73
2023/12/15 03:41:04;;;;;;;10.75;4.18;;;3.60;81.90;;;;;;5072180;28;20498;-72
2023/12/15 03:43:30;;;;;;;6.00;4.10;;;3.60;81.40;;;;;;5072828;28;20040;-72
2023/12/15 03:45:56;;;;;;;9.85;4.30;;;3.60;82.00;;;;;;5073654;28;20086;-73
2023/12/15 03:48:22;;;;;;;3.28;1.98;;;3.70;82.00;;;;;;5074096;28;20481;-73
2023/12/15 03:50:48;;;;;;;2.67;1.88;;;3.60;82.10;;;;;;5073362;28;20489;-74
2023/12/15 03:53:14;;;;;;;7.53;3.78;;;3.70;82.20;;;;;;5073837;28;20424;-72
2023/12/15 03:55:40;;;;;;;6.97;4.45;;;3.70;82.00;;;;;;5073636;28;20039;-72
2023/12/15 03:58:06;;;;;;;5.43;2.05;;;3.70;82.50;;;;;;5073790;28;20032;-72
2023/12/15 04:00:32;;;;;;;7.85;4.35;;;3.70;82.60;;;;;;5055378;28;20422;-73
2023/12/15 04:02:58;;;;;;;4.50;2.70;;;3.70;82.40;;;;;;5073690;28;20513;-72
2023/12/15 04:05:24;;;;;;;7.80;4.03;;;3.80;82.40;;;;;;5071974;28;20072;-73
2023/12/15 04:07:50;;;;;;;6.00;3.03;;;3.70;82.30;;;;;;5073690;28;20048;-73
2023/12/15 04:10:16;;;;;;;3.55;2.38;;;3.70;82.30;;;;;;5071660;28;20024;-73
2023/12/15 04:12:42;;;;;;;5.43;2.63;;;3.70;82.10;;;;;;5073392;28;20025;-73
2023/12/15 04:15:09;;;;;;;3.90;2.53;;;3.70;82.40;;;;;;5073151;28;20051;-72
2023/12/15 04:17:35;;;;;;;4.00;1.92;;;3.70;82.20;;;;;;5073495;28;20029;-72
2023/12/15 04:20:01;;;;;;;5.22;2.03;;;3.70;82.20;;;;;;5073767;28;20049;-73
2023/12/15 04:22:28;;;;;;;2.08;1.25;;;3.70;82.20;;;;;;5071733;28;20032;-73
2023/12/15 04:24:54;;;;;;;3.70;2.63;;;3.70;82.00;;;;;;5073480;28;20041;-73
2023/12/15 04:27:20;;;;;;;3.75;2.42;;;3.60;82.00;;;;;;5071787;28;20029;-72
2023/12/15 04:29:46;;;;;;;5.57;3.08;;;3.60;82.00;;;;;;5055050;28;20497;-72
2023/12/15 04:32:13;;;;;;;8.00;3.33;;;3.60;82.00;;;;;;5071339;28;20094;-72
2023/12/15 04:34:39;;;;;;;8.05;4.10;;;3.60;82.30;;;;;;5071916;28;20389;-73
2023/12/15 04:37:05;;;;;;;5.55;2.50;;;3.60;82.20;;;;;;5073036;28;20028;-72
2023/12/15 04:39:31;;;;;;;5.07;2.97;;;3.60;82.20;;;;;;5072810;28;20043;-73
2023/12/15 04:41:57;;;;;;;11.23;4.72;;;3.60;82.40;;;;;;5071023;28;20032;-73
2023/12/15 04:44:23;;;;;;;3.38;3.08;;;3.60;82.30;;;;;;5073079;28;20060;-73
2023/12/15 04:46:50;;;;;;;4.03;2.35;;;3.70;82.30;;;;;;5071563;28;20041;-73
2023/12/15 04:49:16;;;;;;;5.70;3.63;;;3.70;82.10;;;;;;5071615;28;20386;-73
2023/12/15 04:51:42;;;;;;;8.23;1.77;;;3.70;82.10;;;;;;5070998;28;20509;-73
2023/12/15 04:54:08;;;;;;;6.70;3.35;;;3.70;81.90;;;;;;5072777;28;20036;-73
2023/12/15 04:56:34;;;;;;;3.50;3.10;;;3.60;81.70;;;;;;5072606;28;20086;-73
2023/12/15 04:59:00;;;;;;;4.45;2.55;;;3.60;81.80;;;;;;5072578;28;20046;-73
2023/12/15 05:01:26;;;;;;;3.63;2.17;;;3.60;81.50;;;;;;5072179;28;20082;-72
2023/12/15 05:03:52;;;;;;;5.65;3.45;;;3.60;81.60;;;;;;5071341;28;20093;-74
2023/12/15 05:06:21;;;;;;;3.90;2.42;;;3.60;81.50;;;;;;5070983;28;20075;-74
2023/12/15 05:08:51;;;;;;;4.32;2.05;;;3.60;81.30;;;;;;5054527;28;20037;-72
2023/12/15 05:11:18;;;;;;;8.45;3.28;;;3.60;80.60;;;;;;5070676;28;20386;-73
2023/12/15 05:13:45;;;;;;;6.53;2.78;;;3.60;80.60;;;;;;5070854;28;20037;-73
2023/12/15 05:16:12;;;;;;;9.13;4.05;;;3.50;80.40;;;;;;5070860;28;20496;-73
2023/12/15 05:18:38;;;;;;;4.97;3.67;;;3.50;81.00;;;;;;5071024;28;20044;-74
2023/12/15 05:21:05;;;;;;;4.18;2.17;;;3.50;81.00;;;;;;5071729;28;20032;-72
2023/12/15 05:23:31;;;;;;;4.53;2.38;;;3.40;80.10;;;;;;5070894;28;20043;-72
2023/12/15 05:25:57;;;;;;;4.00;1.98;;;3.40;80.00;;;;;;5068791;28;20088;-72
2023/12/15 05:28:23;;;;;;;2.95;2.08;;;3.40;80.40;;;;;;5067099;28;20142;-72
2023/12/15 05:30:49;;;;;;;4.88;2.65;;;3.40;80.40;;;;;;5071534;28;20036;-73
2023/12/15 05:33:16;;;;;;;3.05;1.73;;;3.40;80.30;;;;;;5058202;28;20033;-72
2023/12/15 05:35:41;;;;;;;;;;;3.40;80.40;;;;;;5051266;28;20091;-73
2023/12/15 05:38:08;;;;;;;4.57;2.38;;;3.40;80.40;;;;;;5051902;28;19920;-72
2023/12/15 05:40:34;;;;;;;7.95;3.30;;;3.40;80.30;;;;;;5050712;28;20029;-74
2023/12/15 05:43:00;;;;;;;5.70;2.13;;;3.30;80.40;;;;;;5053198;28;20048;-73
2023/12/15 05:45:26;;;;;;;4.05;2.72;;;3.40;80.50;;;;;;5056477;28;20057;-72
2023/12/15 05:47:52;;;;;;;3.58;2.15;;;3.40;80.50;;;;;;5052171;28;20041;-72
2023/12/15 05:50:18;;;;;;;2.80;1.38;;;3.40;80.50;;;;;;5049556;28;20056;-74
2023/12/15 05:52:45;;;;;;;4.85;2.72;;;3.40;80.40;;;;;;5051415;28;20033;-72
2023/12/15 05:55:11;;;;;;;4.63;2.15;;;3.50;80.50;;;;;;5051806;28;20025;-72
2023/12/15 05:57:37;;;;;;;6.63;2.88;;;3.50;80.50;;;;;;5050767;28;20475;-75
2023/12/15 06:00:03;;;;;;;5.75;4.50;;;3.50;80.40;;;;;;5050055;28;20712;-73
2023/12/15 06:02:29;;;;;;;2.95;1.95;;;3.50;79.70;;;;;;5051512;28;20037;-72
2023/12/15 06:04:56;;;;;;;5.63;3.60;;;3.50;80.20;;;;;;5063556;28;20409;-72
2023/12/15 06:07:22;;;;;;;6.13;3.83;;;3.40;80.00;;;;;;5037055;28;20029;-74
2023/12/15 06:09:48;;;;;;;4.57;1.85;;;3.40;80.20;;;;;;5061156;28;20094;-72
2023/12/15 06:12:16;;;;;;;4.20;2.42;;;3.40;80.20;;;;;;5053321;28;20555;-73
2023/12/15 06:14:42;;;;;;;6.00;2.80;;;3.40;80.20;;;;;;5070145;28;20032;-73
2023/12/15 06:17:08;;;;;;;5.40;2.95;;;3.40;80.10;;;;;;5070626;28;20031;-73
2023/12/15 06:19:39;;;;;;;2.67;1.52;;;3.40;79.70;;;;;;5070516;28;20040;-74
2023/12/15 06:22:05;;;;;;;5.97;2.58;;;3.40;80.20;;;;;;5069127;28;20044;-74
2023/12/15 06:24:31;;;;;;;18.27;10.90;;;3.40;80.50;;;;;;5071835;28;20036;-72
2023/12/15 06:26:57;;;;;;;13.02;9.02;;;3.40;80.50;;;;;;5071512;28;20391;-72
2023/12/15 06:29:23;;;;;;;14.45;10.80;;;3.30;80.30;;;;;;5070712;28;20045;-73
2023/12/15 06:31:49;;;;;;;21.13;11.02;;;3.20;80.50;;;;;;5069714;28;20071;-72
2023/12/15 06:34:16;;;;;;;17.95;7.85;;;3.10;80.80;;;;;;5053488;28;20494;-72
2023/12/15 06:36:42;;;;;;;8.70;5.57;;;3.10;81.10;;;;;;5071586;28;20074;-72
2023/12/15 06:39:08;;;;;;;9.10;3.40;;;3.10;81.30;;;;;;5055573;28;20063;-72
2023/12/15 06:41:34;;;;;;;3.80;2.20;;;3.00;80.80;;;;;;5049833;28;20037;-73
2023/12/15 06:44:00;;;;;;;2.58;1.42;;;3.10;81.70;;;;;;5050280;28;20029;-72
2023/12/15 06:46:26;;;;;;;4.47;3.13;;;3.10;81.50;;;;;;5050089;28;20410;-73
2023/12/15 06:48:56;;;;;;;5.10;2.75;;;3.10;82.10;;;;;;5050215;28;20475;-72
2023/12/15 06:51:22;;;;;;;9.88;2.80;;;3.00;81.50;;;;;;5051587;28;20052;-72
2023/12/15 06:53:48;;;;;;;;;;;3.00;81.60;;;;;;5055605;28;20059;-74
2023/12/15 06:56:14;;;;;;;3.13;1.45;;;3.00;81.90;;;;;;5037634;28;19916;-72
2023/12/15 06:58:41;;;;;;;2.60;1.25;;;2.90;82.00;;;;;;5058058;28;20097;-74
2023/12/15 07:01:07;;;;;;;5.20;2.35;;;2.90;82.30;;;;;;5094983;28;20097;-74
2023/12/15 07:03:33;;;;;;;4.50;3.05;;;3.00;82.40;;;;;;5093771;28;20475;-74
2023/12/15 07:05:59;;;;;;;5.70;2.58;;;2.90;82.40;;;;;;5094890;28;20493;-74
2023/12/15 07:08:25;;;;;;;3.90;3.08;;;2.90;82.70;;;;;;5088433;28;20045;-74
2023/12/15 07:10:51;;;;;;;4.03;2.13;;;2.90;83.30;;;;;;5083221;28;20054;-74
2023/12/15 07:13:18;;;;;;;3.63;1.75;;;2.90;83.60;;;;;;5056721;28;20446;-73
2023/12/15 07:15:45;;;;;;;4.50;1.95;;;2.90;84.20;;;;;;5071709;28;20116;-73
2023/12/15 07:18:11;;;;;;;2.85;1.75;;;2.90;84.20;;;;;;5073570;28;20389;-72
2023/12/15 07:20:37;;;;;;;5.78;2.08;;;3.00;84.40;;;;;;5072723;28;20033;-73
2023/12/15 07:23:03;;;;;;;2.97;1.15;;;2.90;84.10;;;;;;5074618;28;20064;-72
2023/12/15 07:25:29;;;;;;;1.92;1.35;;;2.90;84.20;;;;;;5056188;28;20406;-72
2023/12/15 07:27:55;;;;;;;2.58;1.73;;;3.00;84.10;;;;;;5092174;28;20043;-73
2023/12/15 07:30:21;;;;;;;3.92;2.17;;;3.10;83.60;;;;;;5072629;28;20040;-72
2023/12/15 07:32:47;;;;;;;;;;;3.10;83.50;;;;;;5073352;28;20040;-74
2023/12/15 07:35:13;;;;;;;3.53;1.23;;;3.30;82.90;;;;;;5073883;28;20019;-73
2023/12/15 07:37:39;;;;;;;2.95;1.27;;;3.40;82.40;;;;;;5056139;28;20030;-73
2023/12/15 07:40:06;;;;;;;1.40;1.00;;;3.50;82.40;;;;;;5072658;28;20097;-73
2023/12/15 07:42:32;;;;;;;4.57;2.55;;;3.60;81.90;;;;;;5073895;28;20025;-72
2023/12/15 07:44:58;;;;;;;4.53;1.10;;;3.70;81.70;;;;;;5072971;28;20040;-74
2023/12/15 07:47:25;;;;;;;5.60;2.45;;;3.70;81.70;;;;;;5071908;28;20064;-73
2023/12/15 07:49:51;;;;;;;5.30;3.33;;;3.80;80.90;;;;;;5074099;28;20533;-71
2023/12/15 07:52:17;;;;;;;4.07;2.90;;;3.90;81.20;;;;;;5072059;28;20044;-72
2023/12/15 07:54:43;;;;;;;6.65;3.17;;;4.00;81.00;;;;;;5055744;28;20564;-72
2023/12/15 07:57:09;;;;;;;4.40;2.55;;;4.10;81.00;;;;;;5072729;28;20082;-73
2023/12/15 07:59:35;;;;;;;8.32;5.35;;;4.20;81.40;;;;;;5073708;28;20035;-72
2023/12/15 08:02:03;;;;;;;;;;;4.30;80.20;;;;;;5072305;28;20039;-73
2023/12/15 08:04:29;;;;;;;7.00;4.50;;;4.40;80.00;;;;;;5090102;28;19919;-72
2023/12/15 08:06:55;;;;;;;9.98;6.30;;;4.40;79.90;;;;;;5093789;28;20070;-72
2023/12/15 08:09:21;;;;;;;;;;;4.50;80.00;;;;;;5094752;28;20405;-73
2023/12/15 08:11:47;;;;;;;7.00;3.63;;;4.60;80.70;;;;;;5093013;28;20010;-74
2023/12/15 08:14:13;;;;;;;5.68;2.88;;;4.60;79.50;;;;;;5093839;28;20036;-72
2023/12/15 08:16:39;;;;;;;5.15;3.60;;;4.60;79.80;;;;;;5079479;28;20024;-72
2023/12/15 08:19:08;;;;;;;;;;;4.70;79.90;;;;;;5092082;28;20548;-73
2023/12/15 08:21:34;;;;;;;5.40;4.03;;;4.80;79.70;;;;;;5073697;28;19924;-73
2023/12/15 08:24:00;;;;;;;;;;;4.80;78.90;;;;;;5052497;28;20033;-72
2023/12/15 08:26:27;;;;;;;6.78;3.47;;;4.90;79.00;;;;;;5071812;28;19940;-72
2023/12/15 08:28:54;;;;;;;7.30;4.85;;;4.80;78.50;;;;;;5071395;28;20047;-72
2023/12/15 08:31:22;;;;;;;11.02;4.38;;;4.80;78.80;;;;;;5050793;28;20060;-72
2023/12/15 08:33:48;;;;;;;6.47;3.97;;;4.90;79.20;;;;;;5078022;28;20040;-72
2023/12/15 08:36:14;;;;;;;7.43;5.00;;;5.00;79.40;;;;;;5088947;28;20060;-73
2023/12/15 08:38:41;;;;;;;;;;;5.10;78.50;;;;;;5066601;28;20050;-72
2023/12/15 08:41:08;;;;;;;9.68;4.93;;;5.20;78.90;;;;;;5071004;28;20297;-73
2023/12/15 08:43:34;;;;;;;2.47;1.38;;;5.30;78.40;;;;;;5070927;28;20543;-71
2023/12/15 08:46:01;;;;;;;8.98;2.63;;;5.30;78.80;;;;;;5071151;28;20040;-72
2023/12/15 08:48:27;;;;;;;3.15;1.85;;;5.50;78.20;;;;;;5051169;28;20047;-71
2023/12/15 08:50:53;;;;;;;3.50;1.98;;;5.60;77.70;;;;;;5069213;28;20498;-70
2023/12/15 08:53:20;;;;;;;4.07;2.20;;;5.70;77.30;;;;;;5069257;28;20025;-73
2023/12/15 08:55:47;;;;;;;6.53;3.30;;;5.90;76.60;;;;;;5069679;28;20055;-73
2023/12/15 08:58:13;;;;;;;6.05;2.85;;;6.00;75.90;;;;;;5070950;28;20037;-74
2023/12/15 09:00:40;;;;;;;3.75;2.25;;;6.10;75.90;;;;;;5071925;28;20033;-73
2023/12/15 09:03:07;;;;;;;6.28;3.55;;;6.50;75.40;;;;;;5077630;28;20036;-74
2023/12/15 09:05:34;;;;;;;3.15;2.00;;;6.80;74.60;;;;;;5090921;28;20054;-72
2023/12/15 09:08:02;;;;;;;6.97;3.00;;;7.00;73.90;;;;;;5082065;28;20029;-72
2023/12/15 09:10:33;;;;;;;7.20;4.28;;;7.00;73.30;;;;;;5067758;28;21262;-72
2023/12/15 09:13:02;;;;;;;5.60;3.08;;;7.10;73.90;;;;;;5060731;28;20044;-72
2023/12/15 09:15:29;;;;;;;9.30;3.83;;;7.00;73.80;;;;;;5070129;28;20051;-73
2023/12/15 09:17:55;;;;;;;13.85;5.53;;;7.20;74.20;;;;;;5072058;28;20035;-72
2023/12/15 09:20:23;;;;;;;5.45;1.95;;;8.20;71.50;;;;;;5070104;28;20028;-73
2023/12/15 09:22:49;;;;;;;7.00;3.50;;;8.60;69.30;;;;;;5067053;28;20375;-73
2023/12/15 09:25:15;;;;;;;2.88;1.83;;;8.60;68.80;;;;;;5050587;28;20025;-74
2023/12/15 09:27:41;;;;;;;1.77;1.35;;;8.20;70.10;;;;;;5055324;28;20024;-73
2023/12/15 09:30:08;;;;;;;3.03;1.58;;;7.80;70.60;;;;;;5070372;28;20501;-73
2023/12/15 09:32:34;;;;;;;7.88;3.53;;;8.00;70.40;;;;;;5070681;28;20028;-73
2023/12/15 09:35:00;;;;;;;4.38;2.20;;;8.60;69.60;;;;;;5072363;28;20371;-73
2023/12/15 09:37:26;;;;;;;9.75;3.30;;;9.20;68.80;;;;;;5071576;28;20025;-70
2023/12/15 09:39:52;;;;;;;4.28;3.63;;;9.80;66.30;;;;;;5054228;28;20040;-71
2023/12/15 09:42:18;;;;;;;3.58;1.80;;;10.30;65.00;;;;;;5070108;28;20033;-71
2023/12/15 09:44:44;;;;;;;;;;;9.80;65.60;;;;;;5065841;28;20041;-70
2023/12/15 09:47:12;;;;;;;1.67;1.20;;;9.40;68.10;;;;;;5053743;28;19959;-71
2023/12/15 09:49:41;;;;;;;2.38;1.20;;;9.00;68.00;;;;;;5072085;28;20045;-70
2023/12/15 09:52:08;;;;;;;3.00;1.55;;;8.90;69.40;;;;;;5053141;28;20040;-71
2023/12/15 09:54:34;;;;;;;2.85;1.98;;;8.60;70.20;;;;;;5071562;28;20078;-71
2023/12/15 09:57:01;;;;;;;2.78;1.25;;;8.40;71.00;;;;;;5070449;28;20064;-71
2023/12/15 09:59:27;;;;;;;3.58;2.33;;;8.00;71.60;;;;;;5070682;28;20036;-70
2023/12/15 10:01:53;;;;;;;3.10;1.20;;;7.80;72.00;;;;;;5063650;28;20068;-71
2023/12/15 10:04:19;;;;;;;2.33;1.58;;;8.00;72.00;;;;;;5068271;28;20058;-71
2023/12/15 10:06:47;;;;;;;2.20;1.20;;;8.80;70.10;;;;;;5053418;28;20032;-70
2023/12/15 10:09:13;;;;;;;5.63;1.67;;;10.00;65.50;;;;;;5071646;28;20033;-71
2023/12/15 10:11:40;;;;;;;6.63;3.60;;;10.00;64.90;;;;;;5069664;28;20044;-71
2023/12/15 10:14:07;;;;;;;7.55;1.80;;;11.00;61.80;;;;;;5070466;28;20440;-70
2023/12/15 10:16:52;;;;;;;3.63;3.28;;;12.10;58.30;;;;;;5070134;28;20489;-71
2023/12/15 10:19:18;;;;;;;1.55;1.23;;;12.20;57.90;;;;;;5060680;28;20490;-73
2023/12/15 10:21:44;;;;;;;3.90;1.17;;;12.30;58.30;;;;;;5049729;28;20029;-71
2023/12/15 10:24:24;;;;;;;3.08;1.52;;;12.80;56.30;;;;;;5070155;28;20048;-70
2023/12/15 10:26:51;;;;;;;1.30;0.68;;;12.90;51.30;;;;;;5071835;28;20033;-70
2023/12/15 10:29:29;;;;;;;1.90;1.00;;;12.40;52.40;;;;;;5073693;28;20401;-70
2023/12/15 10:31:55;;;;;;;0.82;0.75;;;12.10;54.10;;;;;;5073386;28;20056;-69
2023/12/15 10:34:26;;;;;;;2.65;1.65;;;11.60;55.10;;;;;;5073666;28;20112;-69
2023/12/15 10:36:53;;;;;;;2.90;1.80;;;12.10;54.20;;;;;;5060727;28;20025;-70
2023/12/15 10:39:20;;;;;;;1.17;0.50;;;12.60;51.30;;;;;;5073576;28;20225;-71
2023/12/15 10:41:47;;;;;;;3.45;1.50;;;12.40;51.70;;;;;;5073244;28;20443;-70
2023/12/15 10:44:15;;;;;;;6.50;1.70;;;12.50;52.30;;;;;;5056993;28;20634;-71
2023/12/15 10:46:43;;;;;;;1.88;1.13;;;12.20;51.70;;;;;;5074973;28;20033;-69
2023/12/15 10:49:11;;;;;;;4.60;1.25;;;11.90;52.00;;;;;;5073528;28;20393;-71
2023/12/15 10:51:56;;;;;;;0.90;0.57;;;13.40;48.30;;;;;;5072767;28;20078;-71
2023/12/15 10:54:22;;;;;;;3.72;1.27;;;13.80;45.80;;;;;;5055235;28;20041;-73
2023/12/15 10:56:51;;;;;;;4.72;1.88;;;14.20;45.50;;;;;;5053251;28;20025;-71
2023/12/15 10:59:17;;;;;;;0.65;0.40;;;14.30;44.30;;;;;;5074391;28;20032;-70
2023/12/15 11:01:46;;;;;;;1.80;1.45;;;15.80;41.70;;;;;;5074204;28;20485;-71
2023/12/15 11:04:31;;;;;;;2.28;1.63;;;17.50;37.90;;;;;;5072974;28;20420;-70
2023/12/15 11:06:57;;;;;;;2.22;1.02;;;17.40;37.00;;;;;;5056293;28;20025;-70
2023/12/15 11:09:42;;;;;;;;;;;17.00;37.60;;;;;;5071890;28;20044;-71
2023/12/15 11:12:45;;;;;;;2.95;0.95;;;15.20;40.60;;;;;;5055473;28;20298;-69
2023/12/15 11:15:13;;;;;;;2.05;0.82;;;14.90;42.60;;;;;;5056215;28;20100;-71
2023/12/15 11:17:59;;;;;;;1.90;1.00;;;15.00;41.60;;;;;;5073076;28;20032;-71
2023/12/15 11:20:25;;;;;;;0.60;0.50;;;15.30;42.20;;;;;;5072418;28;20397;-72
2023/12/15 11:23:11;;;;;;;3.45;1.08;;;15.50;41.50;;;;;;5073876;28;20025;-70
2023/12/15 11:25:52;;;;;;;0.63;0.52;;;14.90;41.70;;;;;;5073364;28;20063;-70
2023/12/15 11:28:20;;;;;;;2.17;1.65;;;15.50;40.70;;;;;;5055350;28;20566;-70
2023/12/15 11:31:19;;;;;;;1.60;0.90;;;16.20;39.30;;;;;;5055736;28;20090;-69
2023/12/15 11:33:46;;;;;;;1.08;0.70;;;15.60;41.10;;;;;;5072852;28;20406;-70
2023/12/15 11:36:13;;;;;;;1.13;0.63;;;14.70;43.30;;;;;;5072818;28;20032;-71
2023/12/15 11:38:40;;;;;;;1.05;0.88;;;14.20;44.80;;;;;;5073822;28;20036;-71
2023/12/15 11:41:08;;;;;;;2.42;0.98;;;14.00;45.60;;;;;;5055660;28;20063;-71
2023/12/15 11:46:21;;;;;;;2.15;0.82;;;15.60;40.00;;;;;;5053116;28;20061;-72
2023/12/15 11:48:47;;;;;;;1.30;0.88;;;14.50;41.80;;;;;;5051395;28;20032;-70
2023/12/15 11:51:14;;;;;;;0.88;0.68;;;13.90;44.30;;;;;;5073448;28;20036;-71
2023/12/15 11:53:42;;;;;;;0.93;0.55;;;14.50;42.60;;;;;;5052473;28;20063;-71
2023/12/15 11:56:10;;;;;;;1.80;0.60;;;16.30;39.10;;;;;;5053623;28;20021;-71
2023/12/15 11:58:37;;;;;;;0.80;0.47;;;18.70;33.70;;;;;;5066402;28;20394;-71
2023/12/15 12:01:03;;;;;;;1.65;0.55;;;17.80;33.40;;;;;;5047266;28;20048;-69
2023/12/15 12:06:33;;;;;;;0.75;0.38;;;16.20;36.90;;;;;;5072289;28;20136;-71
2023/12/15 12:08:59;;;;;;;1.00;0.55;;;15.50;37.90;;;;;;5072196;28;20051;-71
2023/12/15 12:11:25;;;;;;;1.75;0.40;;;15.00;39.30;;;;;;5073117;28;20282;-71
2023/12/15 12:14:02;;;;;;;1.10;0.57;;;14.20;39.70;;;;;;5073440;28;20547;-71
2023/12/15 12:16:28;;;;;;;0.77;0.25;;;13.70;41.20;;;;;;5072199;28;20039;-69
2023/12/15 12:18:56;;;;;;;0.80;0.75;;;13.70;41.90;;;;;;5058697;28;20429;-69
2023/12/15 12:21:22;;;;;;;0.47;0.32;;;13.30;42.00;;;;;;5058182;28;20090;-70
2023/12/15 12:23:49;;;;;;;1.00;0.60;;;12.90;42.80;;;;;;5055875;28;20049;-72
2023/12/15 12:26:15;;;;;;;0.75;0.50;;;12.60;43.70;;;;;;5051718;28;20029;-71
2023/12/15 12:28:47;;;;;;;2.40;1.05;;;12.50;43.80;;;;;;5053001;28;20391;-69
2023/12/15 12:33:59;;;;;;;4.10;0.98;;;12.50;42.70;;;;;;5051829;28;20072;-69
2023/12/15 12:36:25;;;;;;;0.15;0.15;;;13.00;40.80;;;;;;5070121;28;20025;-69
2023/12/15 12:38:51;;;;;;;0.10;0.10;;;13.50;38.00;;;;;;5072710;28;20110;-69
2023/12/15 12:41:17;;;;;;;0.30;0.30;;;13.20;36.90;;;;;;5070934;28;20037;-71
2023/12/15 12:43:43;;;;;;;0.40;0.28;;;12.90;38.30;;;;;;5071309;28;20098;-71
2023/12/15 12:46:28;;;;;;;1.45;0.70;;;13.20;37.30;;;;;;5054539;28;20060;-70
2023/12/15 12:48:54;;;;;;;1.90;1.50;;;13.50;36.60;;;;;;5070722;28;20296;-73
2023/12/15 12:51:20;;;;;;;4.18;2.72;;;14.00;36.20;;;;;;5069991;28;20067;-71
2023/12/15 12:53:47;;;;;;;1.58;0.57;;;14.70;35.00;;;;;;5067927;28;20043;-71
2023/12/15 12:56:14;;;;;;;0.73;0.47;;;14.70;33.60;;;;;;5071236;28;20028;-69
2023/12/15 12:58:40;;;;;;;5.30;1.40;;;14.60;33.90;;;;;;5072209;28;20036;-70
2023/12/15 13:01:06;;;;;;;;;;;14.10;35.90;;;;;;5071190;28;20033;-71
2023/12/15 13:03:32;;;;;;;0.43;0.43;;;13.90;35.40;;;;;;5072204;28;20372;-69
2023/12/15 13:05:58;;;;;;;;;;;13.70;36.90;;;;;;5071775;28;20044;-70
2023/12/15 13:08:25;;;;;;;0.43;0.25;;;13.80;36.60;;;;;;5069735;28;19929;-71